Time;durP1;ratioP1;P1;durP2;ratioP2;P2;SDS_P1;SDS_P2;PMS_P1;PMS_P2;Temp;Humidity;BMP_temperature;BMP_pressure;BME280_temperature;BME280_humidity;BME280_pressure;Samples;Min_cycle;Max_cycle;Signal;HPM_P1;HPM_P2
2021/03/29 00:01:51;;;;;;;19.98;9.85;;;;;;;6.28;62.80;101445.30;1740287;81;21132;-80
2021/03/29 00:04:17;;;;;;;17.67;9.13;;;;;;;6.30;62.84;101448.28;1740244;82;21241;-80
2021/03/29 00:06:44;;;;;;;19.90;9.80;;;;;;;6.32;62.72;101448.23;1733671;82;21668;-80
2021/03/29 00:09:11;;;;;;;14.63;9.08;;;;;;;6.34;62.80;101446.39;1724452;82;21111;-80
2021/03/29 00:11:40;;;;;;;16.35;8.68;;;;;;;6.34;62.79;101439.84;1721227;82;21224;-80
2021/03/29 00:14:07;;;;;;;14.65;9.50;;;;;;;6.36;62.96;101445.89;1744895;82;21099;-80
2021/03/29 00:16:34;;;;;;;19.00;9.05;;;;;;;6.35;62.99;101444.20;1746673;81;21117;-80
2021/03/29 00:19:01;;;;;;;20.02;8.63;;;;;;;6.36;63.03;101448.52;1754727;80;21079;-80
2021/03/29 00:21:27;;;;;;;19.45;9.63;;;;;;;6.34;62.99;101438.53;1759610;81;21111;-80
2021/03/29 00:23:54;;;;;;;19.98;10.10;;;;;;;6.34;63.22;101446.39;1748109;82;21094;-80
2021/03/29 00:26:20;;;;;;;17.48;9.73;;;;;;;6.33;63.23;101441.61;1748682;82;21067;-80
2021/03/29 00:28:46;;;;;;;17.82;9.40;;;;;;;6.32;63.22;101441.22;1748217;82;21187;-80
2021/03/29 00:31:12;;;;;;;15.50;8.63;;;;;;;6.32;63.21;101438.60;1748410;82;21094;-80
2021/03/29 00:33:43;;;;;;;20.80;10.23;;;;;;;6.32;63.38;101444.30;1748418;82;21547;-80
2021/03/29 00:36:10;;;;;;;17.48;10.05;;;;;;;6.31;63.58;101443.88;1724675;82;21114;-80
2021/03/29 00:38:38;;;;;;;15.78;9.78;;;;;;;6.31;63.55;101453.91;1751645;82;21141;-80
2021/03/29 00:41:10;;;;;;;15.63;8.68;;;;;;;6.30;63.66;101443.49;1726839;82;21078;-79
2021/03/29 00:43:41;;;;;;;15.15;7.87;;;;;;;6.28;63.91;101446.16;1748087;82;21522;-80
2021/03/29 00:46:09;;;;;;;15.18;7.83;;;;;;;6.28;64.04;101446.16;1756762;81;21549;-80
2021/03/29 00:48:37;;;;;;;15.28;8.38;;;;;;;6.30;64.17;101443.49;1753573;81;21141;-80
2021/03/29 00:51:17;;;;;;;19.20;8.20;;;;;;;6.30;64.25;101438.25;1748467;82;21130;-80
2021/03/29 00:53:51;;;;;;;17.17;7.83;;;;;;;6.31;64.30;101436.02;1747880;82;21114;-80
2021/03/29 00:56:18;;;;;;;13.65;6.70;;;;;;;6.33;64.40;101438.98;1748428;82;21165;-80
2021/03/29 00:58:49;;;;;;;15.95;7.37;;;;;;;6.37;64.43;101438.88;1751737;82;21559;-80
2021/03/29 01:01:22;;;;;;;17.40;8.85;;;;;;;6.41;64.47;101440.00;1752943;82;21091;-80
2021/03/29 01:03:52;;;;;;;17.05;9.00;;;;;;;6.45;64.61;101435.50;1749442;82;21090;-80
2021/03/29 01:06:23;;;;;;;14.03;9.00;;;;;;;6.45;64.56;101433.76;1753143;82;21233;-80
2021/03/29 01:08:56;;;;;;;17.27;9.43;;;;;;;6.48;64.58;101434.07;1753298;82;21143;-80
2021/03/29 01:11:24;;;;;;;;;;;;;;;6.48;64.61;101431.02;1755747;82;21127;-80
2021/03/29 01:14:06;;;;;;;21.15;9.28;;;;;;;6.47;64.70;101426.66;1750237;82;20408;-80
2021/03/29 01:16:50;;;;;;;20.48;9.28;;;;;;;6.46;64.60;101426.28;1748175;82;21114;-80
2021/03/29 01:19:50;;;;;;;16.85;8.70;;;;;;;6.45;64.72;101415.83;1748679;82;21146;-82
2021/03/29 01:22:23;;;;;;;19.40;8.38;;;;;;;6.44;64.82;101423.31;1750398;82;21122;-80
2021/03/29 01:25:18;;;;;;;14.33;7.92;;;;;;;6.43;64.89;101421.61;1753308;82;21700;-80
2021/03/29 01:27:53;;;;;;;16.17;7.80;;;;;;;6.42;64.93;101417.29;1751403;82;21529;-80
2021/03/29 01:30:21;;;;;;;21.27;8.68;;;;;;;6.42;65.03;101421.22;1720804;82;21106;-80
2021/03/29 01:32:48;;;;;;;19.15;8.83;;;;;;;6.42;65.19;101423.84;1748303;82;21284;-80
2021/03/29 01:35:28;;;;;;;14.40;6.72;;;;;;;6.40;65.35;101416.02;1724649;82;21903;-80
2021/03/29 01:37:55;;;;;;;15.35;7.10;;;;;;;6.39;65.42;101410.39;1748208;82;21589;-80
2021/03/29 01:40:22;;;;;;;14.65;7.45;;;;;;;6.40;65.50;101413.40;1748126;82;21529;-80
2021/03/29 01:42:50;;;;;;;13.93;6.75;;;;;;;6.41;65.55;101409.85;1752013;82;21124;-80
2021/03/29 01:45:19;;;;;;;16.67;8.45;;;;;;;6.43;65.58;101409.81;1761546;81;21091;-80
2021/03/29 01:47:46;;;;;;;17.50;7.70;;;;;;;6.46;65.59;101410.55;1759766;81;21098;-80
2021/03/29 01:50:17;;;;;;;16.48;8.63;;;;;;;6.50;65.63;101400.33;1748411;82;21140;-80
2021/03/29 01:52:43;;;;;;;14.50;8.05;;;;;;;6.53;65.68;101401.52;1741290;81;21125;-80
2021/03/29 01:55:11;;;;;;;12.78;7.85;;;;;;;6.57;65.70;101400.95;1721509;83;21156;-80
2021/03/29 01:57:37;;;;;;;14.20;7.70;;;;;;;6.60;65.67;101400.83;1733990;82;21116;-80
2021/03/29 02:00:21;;;;;;;14.68;7.95;;;;;;;6.64;65.61;101405.50;1748288;82;21114;-80
2021/03/29 02:02:47;;;;;;;18.80;7.40;;;;;;;6.67;65.61;101405.38;1748371;82;21090;-81
2021/03/29 02:05:15;;;;;;;11.43;7.37;;;;;;;6.69;65.59;101398.31;1748702;82;21911;-80
2021/03/29 02:07:43;;;;;;;16.97;6.90;;;;;;;6.68;65.54;101400.09;1728384;82;21059;-80
2021/03/29 02:10:13;;;;;;;15.30;7.10;;;;;;;6.68;65.52;101406.64;1749746;82;21087;-80
2021/03/29 02:12:41;;;;;;;9.28;5.45;;;;;;;6.69;65.59;101403.09;1752674;82;21079;-80
2021/03/29 02:15:15;;;;;;;13.95;6.47;;;;;;;6.70;65.64;101398.70;1735333;82;21280;-81
2021/03/29 02:17:43;;;;;;;13.88;6.15;;;;;;;6.70;65.63;101400.86;1738621;82;21110;-80
2021/03/29 02:20:17;;;;;;;15.48;7.08;;;;;;;6.71;65.54;101398.66;1748462;82;21102;-80
2021/03/29 02:22:50;;;;;;;10.98;5.90;;;;;;;6.72;65.69;101401.67;1727250;82;21128;-79
2021/03/29 02:25:21;;;;;;;10.23;5.87;;;;;;;6.72;65.54;101396.88;1747049;82;21163;-79
2021/03/29 02:27:49;;;;;;;13.22;6.33;;;;;;;6.72;65.58;101393.80;1748174;82;21136;-79
2021/03/29 02:30:20;;;;;;;11.45;5.70;;;;;;;6.74;65.58;101401.59;1748331;82;21119;-82
2021/03/29 02:32:48;;;;;;;11.10;5.92;;;;;;;6.74;65.61;101395.88;1748100;82;21116;-82
2021/03/29 02:35:16;;;;;;;10.82;4.92;;;;;;;6.76;65.59;101402.40;1718400;83;21605;-82
2021/03/29 02:37:47;;;;;;;8.98;5.00;;;;;;;6.78;65.64;101397.95;1734390;82;21122;-82
2021/03/29 02:40:16;;;;;;;10.85;5.55;;;;;;;6.80;65.69;101394.33;1747968;82;21146;-81
2021/03/29 02:42:43;;;;;;;8.50;4.08;;;;;;;6.85;65.67;101395.95;1748212;82;21098;-80
2021/03/29 02:45:12;;;;;;;8.93;4.83;;;;;;;6.90;65.65;101393.97;1748029;82;21171;-80
2021/03/29 02:47:42;;;;;;;11.83;5.17;;;;;;;6.95;65.61;101395.97;1748362;82;21122;-80
2021/03/29 02:50:13;;;;;;;8.13;5.05;;;;;;;6.98;65.58;101394.07;1747008;82;21126;-80
2021/03/29 02:52:42;;;;;;;13.15;6.42;;;;;;;7.02;65.54;101385.15;1749125;82;21553;-80
2021/03/29 02:55:09;;;;;;;10.35;5.20;;;;;;;7.05;65.39;101390.73;1748510;82;21126;-80
2021/03/29 02:57:37;;;;;;;8.40;5.20;;;;;;;7.06;65.39;101391.12;1728670;82;21618;-80
2021/03/29 03:00:10;;;;;;;11.68;4.60;;;;;;;7.08;65.34;101393.70;1753483;82;21526;-80
2021/03/29 03:02:37;;;;;;;7.42;3.98;;;;;;;7.08;65.42;101397.17;1751744;82;21078;-80
2021/03/29 03:05:09;;;;;;;7.70;4.92;;;;;;;7.09;65.36;101396.71;1748252;82;21721;-80
2021/03/29 03:07:36;;;;;;;8.45;5.17;;;;;;;7.08;65.32;101395.86;1748264;82;21058;-80
2021/03/29 03:10:07;;;;;;;11.45;5.08;;;;;;;7.06;65.46;101395.06;1748008;82;21054;-80
2021/03/29 03:12:35;;;;;;;11.53;5.15;;;;;;;7.05;65.40;101392.90;1748534;82;21121;-80
2021/03/29 03:15:01;;;;;;;12.03;5.92;;;;;;;7.04;65.47;101400.38;1747962;82;21146;-80
2021/03/29 03:17:27;;;;;;;9.95;5.37;;;;;;;7.03;65.46;101399.12;1748169;82;21157;-80
2021/03/29 03:19:53;;;;;;;12.45;5.65;;;;;;;7.01;65.49;101400.51;1748318;82;21195;-80
2021/03/29 03:22:19;;;;;;;10.30;4.90;;;;;;;7.01;65.61;101400.97;1750313;82;21237;-80
2021/03/29 03:24:46;;;;;;;16.02;6.25;;;;;;;7.00;65.61;101398.78;1751314;82;21134;-80
2021/03/29 03:27:12;;;;;;;10.15;5.97;;;;;;;6.99;65.65;101390.52;1747769;82;21126;-80
2021/03/29 03:29:42;;;;;;;11.53;5.40;;;;;;;6.99;65.79;101399.70;1748473;82;21178;-80
2021/03/29 03:32:16;;;;;;;13.35;5.45;;;;;;;6.97;65.73;101392.80;1748173;82;21106;-80
2021/03/29 03:34:43;;;;;;;8.58;4.87;;;;;;;6.96;65.87;101391.10;1735897;82;21152;-80
2021/03/29 03:37:15;;;;;;;13.50;5.53;;;;;;;6.97;65.94;101392.80;1748310;82;21170;-80
2021/03/29 03:39:44;;;;;;;11.10;5.83;;;;;;;6.98;65.94;101390.13;1752800;82;21134;-80
2021/03/29 03:42:12;;;;;;;14.28;4.95;;;;;;;7.00;65.93;101390.91;1753211;82;21083;-80
2021/03/29 03:44:40;;;;;;;12.90;5.87;;;;;;;7.05;65.88;101395.98;1753117;82;21485;-81
2021/03/29 03:47:07;;;;;;;11.55;5.33;;;;;;;7.09;65.85;101394.09;1752652;82;21526;-80
2021/03/29 03:49:35;;;;;;;9.00;5.83;;;;;;;7.12;65.78;101393.50;1753176;82;21450;-80
2021/03/29 03:52:02;;;;;;;9.50;4.53;;;;;;;7.15;65.71;101389.91;1752962;82;21320;-80
2021/03/29 03:54:28;;;;;;;8.85;4.37;;;;;;;7.15;65.63;101386.81;1748562;82;21163;-80
2021/03/29 03:56:55;;;;;;;9.88;4.90;;;;;;;7.18;65.66;101386.69;1747780;82;21138;-80
2021/03/29 03:59:21;;;;;;;8.43;4.80;;;;;;;7.19;65.63;101388.84;1748421;82;21047;-80
2021/03/29 04:02:06;;;;;;;9.15;4.53;;;;;;;7.18;65.56;101391.94;1747953;82;22449;-80
2021/03/29 04:04:34;;;;;;;6.65;3.80;;;;;;;7.18;65.52;101395.87;1746733;82;21112;-81
2021/03/29 04:07:01;;;;;;;9.55;4.45;;;;;;;7.17;65.59;101394.17;1748008;82;21147;-81
2021/03/29 04:09:39;;;;;;;6.70;3.92;;;;;;;7.16;65.48;101400.33;1739379;82;21557;-81
2021/03/29 04:11:55;;;;;;;10.10;4.25;;;;;;;7.14;65.55;101399.55;1745915;82;21191;-81
2021/03/29 04:14:21;;;;;;;10.38;5.10;;;;;;;7.14;65.55;101402.61;1750134;82;21406;-81
2021/03/29 04:16:47;;;;;;;9.58;5.10;;;;;;;7.12;65.64;101403.15;1747964;82;21665;-81
2021/03/29 04:19:13;;;;;;;9.80;5.03;;;;;;;7.10;65.56;101401.03;1748452;81;21122;-81
2021/03/29 04:21:39;;;;;;;10.95;4.97;;;;;;;7.09;65.51;101400.19;1748192;82;21225;-81
2021/03/29 04:24:06;;;;;;;7.55;4.60;;;;;;;7.09;65.46;101400.64;1748366;82;21486;-81
2021/03/29 04:26:32;;;;;;;10.32;5.25;;;;;;;7.09;65.46;101404.59;1747844;82;21114;-81
2021/03/29 04:28:59;;;;;;;14.73;4.87;;;;;;;7.07;65.45;101407.72;1748231;82;21146;-81
2021/03/29 04:31:25;;;;;;;12.75;5.22;;;;;;;7.08;65.54;101408.14;1748359;82;21531;-81
2021/03/29 04:33:50;;;;;;;9.45;4.53;;;;;;;7.07;65.52;101402.47;1748489;82;21213;-81
2021/03/29 04:36:16;;;;;;;7.20;4.28;;;;;;;7.07;65.56;101405.09;1748271;82;21652;-81
2021/03/29 04:38:42;;;;;;;8.78;4.53;;;;;;;7.07;65.67;101407.72;1747898;82;21110;-81
2021/03/29 04:41:08;;;;;;;8.40;4.55;;;;;;;7.09;65.62;101403.27;1748279;82;21138;-81
2021/03/29 04:43:34;;;;;;;15.43;4.90;;;;;;;7.09;65.58;101409.38;1747851;82;21144;-81
2021/03/29 04:46:00;;;;;;;8.45;5.20;;;;;;;7.13;65.63;101400.91;1748335;81;21180;-81
2021/03/29 04:48:26;;;;;;;12.63;4.92;;;;;;;7.18;65.61;101406.84;1748121;82;21102;-81
2021/03/29 04:50:52;;;;;;;10.60;5.15;;;;;;;7.22;65.66;101405.78;1748058;82;21647;-81
2021/03/29 04:53:18;;;;;;;13.15;4.92;;;;;;;7.25;65.52;101410.45;1748410;82;21126;-81
2021/03/29 04:55:44;;;;;;;9.68;4.72;;;;;;;7.29;65.56;101404.61;1748046;82;21613;-81
2021/03/29 04:58:10;;;;;;;10.23;5.28;;;;;;;7.32;65.44;101402.32;1748351;82;21126;-81
2021/03/29 05:00:36;;;;;;;11.12;5.72;;;;;;;7.33;65.41;101404.87;1748217;82;21286;-81
2021/03/29 05:03:02;;;;;;;13.85;5.85;;;;;;;7.36;65.36;101413.08;1748082;82;21252;-81
2021/03/29 05:05:28;;;;;;;13.00;4.85;;;;;;;7.37;65.41;101417.41;1748421;82;21612;-81
2021/03/29 05:07:54;;;;;;;8.98;4.55;;;;;;;7.38;65.49;101419.98;1737733;82;21522;-81
2021/03/29 05:10:20;;;;;;;7.65;4.85;;;;;;;7.37;65.40;101419.60;1727140;82;21079;-81
2021/03/29 05:12:46;;;;;;;8.73;4.55;;;;;;;7.38;65.40;101421.30;1734227;82;21074;-81
2021/03/29 05:15:14;;;;;;;7.35;4.17;;;;;;;7.38;65.40;101423.92;1731446;82;21675;-81
2021/03/29 05:17:40;;;;;;;11.03;5.03;;;;;;;7.38;65.44;101426.55;1739642;82;21525;-81
2021/03/29 05:20:07;;;;;;;16.10;5.78;;;;;;;7.40;65.55;101429.95;1747428;82;21280;-81
2021/03/29 05:22:34;;;;;;;14.68;5.50;;;;;;;7.39;65.48;101436.13;1750713;82;21116;-81
2021/03/29 05:25:00;;;;;;;14.40;5.90;;;;;;;7.39;65.51;101436.59;1749431;82;21078;-81
2021/03/29 05:27:26;;;;;;;13.22;7.22;;;;;;;7.38;65.55;101434.42;1752721;82;21143;-81
2021/03/29 05:29:52;;;;;;;11.08;5.70;;;;;;;7.39;65.64;101440.53;1752694;81;21132;-80
2021/03/29 05:32:22;;;;;;;13.22;5.87;;;;;;;7.39;65.61;101437.91;1746503;82;21558;-81
2021/03/29 05:34:51;;;;;;;8.13;5.47;;;;;;;7.39;65.67;101437.91;1751460;82;21122;-81
2021/03/29 05:37:19;;;;;;;9.20;4.60;;;;;;;7.40;65.67;101439.13;1752496;82;21127;-81
2021/03/29 05:39:49;;;;;;;14.35;5.03;;;;;;;7.41;65.78;101442.18;1751214;82;21122;-81
2021/03/29 05:42:15;;;;;;;11.10;4.90;;;;;;;7.44;66.00;101443.37;1746577;82;21182;-81
2021/03/29 05:44:41;;;;;;;13.35;5.95;;;;;;;7.49;66.27;101443.16;1747859;82;21082;-81
2021/03/29 05:47:07;;;;;;;11.68;6.00;;;;;;;7.55;66.34;101446.84;1747452;82;21183;-81
2021/03/29 05:49:34;;;;;;;13.55;4.67;;;;;;;7.62;66.34;101447.44;1747417;82;21160;-81
2021/03/29 05:52:02;;;;;;;15.03;5.40;;;;;;;7.70;66.37;101453.20;1747602;82;21138;-81
2021/03/29 05:54:28;;;;;;;12.47;5.62;;;;;;;7.78;66.15;101455.53;1751533;82;21790;-81
2021/03/29 05:56:55;;;;;;;16.05;5.42;;;;;;;7.84;66.04;101459.21;1752185;82;21147;-81
2021/03/29 05:59:25;;;;;;;8.43;5.25;;;;;;;7.90;65.94;101457.64;1752783;82;21704;-81
2021/03/29 06:01:56;;;;;;;10.43;4.85;;;;;;;7.96;65.87;101441.57;1752097;82;21133;-81
2021/03/29 06:04:49;;;;;;;17.85;6.37;;;;;;;8.02;65.86;101449.66;1752736;82;21265;-79
2021/03/29 06:07:20;;;;;;;13.98;5.25;;;;;;;8.07;66.05;101444.60;1752240;82;21118;-80
2021/03/29 06:09:49;;;;;;;12.73;5.33;;;;;;;8.13;65.87;101444.80;1752959;82;21138;-80
2021/03/29 06:12:18;;;;;;;14.00;5.67;;;;;;;8.15;65.92;101443.78;1751551;82;21132;-80
2021/03/29 06:14:47;;;;;;;12.82;5.20;;;;;;;8.20;65.75;101449.70;1749442;81;21517;-80
2021/03/29 06:17:17;;;;;;;9.25;5.03;;;;;;;8.25;65.66;101453.89;1752472;82;21562;-80
2021/03/29 06:19:59;;;;;;;12.25;6.17;;;;;;;8.26;65.43;101451.21;1752077;82;21131;-80
2021/03/29 06:22:38;;;;;;;13.70;5.97;;;;;;;8.29;65.68;101449.77;1752721;81;21557;-81
2021/03/29 06:25:12;;;;;;;10.95;6.17;;;;;;;8.31;65.55;101454.47;1751993;82;21546;-80
2021/03/29 06:27:48;;;;;;;11.93;6.40;;;;;;;8.35;65.78;101451.23;1750594;82;21115;-80
2021/03/29 06:30:37;;;;;;;13.50;6.90;;;;;;;8.37;65.72;101451.56;1752713;81;21256;-80
2021/03/29 06:33:18;;;;;;;13.28;7.17;;;;;;;8.41;65.59;101450.53;1752671;82;21645;-80
2021/03/29 06:35:54;;;;;;;11.38;5.90;;;;;;;8.45;65.73;101451.23;1752186;82;21159;-80
2021/03/29 06:38:25;;;;;;;15.28;6.70;;;;;;;8.51;65.90;101448.80;1740675;82;21135;-80
2021/03/29 06:40:55;;;;;;;17.02;7.92;;;;;;;8.55;65.71;101445.94;1752601;82;21160;-80
2021/03/29 06:43:41;;;;;;;13.55;7.40;;;;;;;8.62;65.68;101447.83;1749793;82;21118;-80
2021/03/29 06:46:28;;;;;;;11.85;7.70;;;;;;;8.67;65.47;101449.33;1746320;82;21142;-79
2021/03/29 06:48:58;;;;;;;10.98;6.47;;;;;;;8.75;65.41;101449.42;1747108;82;21138;-79
2021/03/29 06:51:28;;;;;;;13.25;6.67;;;;;;;8.81;65.42;101448.67;1749245;82;21126;-79
2021/03/29 06:54:05;;;;;;;11.57;5.55;;;;;;;8.87;65.43;101448.85;1752457;82;21107;-79
2021/03/29 06:56:39;;;;;;;11.83;4.72;;;;;;;8.93;65.08;101450.73;1752884;81;21595;-81
2021/03/29 06:59:24;;;;;;;9.53;5.40;;;;;;;9.01;64.96;101455.61;1746345;81;21112;-82
2021/03/29 07:01:54;;;;;;;12.68;6.28;;;;;;;9.09;64.77;101452.16;1747416;82;21467;-80
2021/03/29 07:04:23;;;;;;;12.77;6.50;;;;;;;9.17;64.38;101455.73;1736840;82;21135;-81
2021/03/29 07:06:50;;;;;;;13.60;6.90;;;;;;;9.26;64.50;101452.66;1749269;82;21122;-81
2021/03/29 07:09:18;;;;;;;11.57;6.22;;;;;;;9.35;64.17;101455.31;1750525;82;21252;-81
2021/03/29 07:11:46;;;;;;;15.05;6.10;;;;;;;9.45;64.10;101454.39;1745893;82;21099;-81
2021/03/29 07:14:15;;;;;;;14.25;6.80;;;;;;;9.51;64.12;101456.25;1748615;82;21296;-81
2021/03/29 07:16:42;;;;;;;17.23;6.42;;;;;;;9.60;63.92;101457.08;1749988;82;21132;-81
2021/03/29 07:19:09;;;;;;;16.97;6.17;;;;;;;9.68;63.94;101456.71;1726585;82;21614;-81
2021/03/29 07:21:37;;;;;;;17.40;7.12;;;;;;;9.75;64.13;101464.69;1729022;83;21517;-81
2021/03/29 07:24:07;;;;;;;13.60;5.92;;;;;;;9.86;63.85;101462.81;1729632;82;21561;-81
2021/03/29 07:26:47;;;;;;;11.05;6.00;;;;;;;9.95;63.35;101458.86;1744166;82;21122;-81
2021/03/29 07:29:24;;;;;;;14.45;5.62;;;;;;;10.03;62.90;101459.30;1730025;82;21609;-81
2021/03/29 07:32:01;;;;;;;15.60;6.50;;;;;;;10.08;62.86;101458.13;1694190;82;21361;-82
2021/03/29 07:34:49;;;;;;;11.28;5.83;;;;;;;10.16;62.61;101459.04;1692277;84;21127;-82
2021/03/29 07:37:44;;;;;;;13.55;6.00;;;;;;;10.24;62.44;101460.81;1695508;84;21204;-82
2021/03/29 07:40:22;;;;;;;15.20;7.10;;;;;;;10.32;62.17;101465.23;1694623;84;21538;-81
2021/03/29 07:42:54;;;;;;;9.13;5.25;;;;;;;10.40;61.94;101462.20;1693578;83;22671;-82
2021/03/29 07:45:28;;;;;;;13.22;5.75;;;;;;;10.45;62.13;101468.08;1700657;83;21146;-82
2021/03/29 07:47:57;;;;;;;13.43;5.90;;;;;;;10.52;61.67;101461.99;1683815;83;21214;-82
2021/03/29 07:50:31;;;;;;;14.03;6.03;;;;;;;10.59;61.28;101466.47;1688897;84;21167;-82
2021/03/29 07:53:04;;;;;;;10.45;5.47;;;;;;;10.62;61.37;101468.47;1689472;83;21146;-82
2021/03/29 07:55:41;;;;;;;14.25;5.50;;;;;;;10.69;61.23;101472.48;1698033;84;21115;-82
2021/03/29 07:58:14;;;;;;;14.93;5.05;;;;;;;10.75;60.98;101469.98;1687084;84;21182;-82
2021/03/29 08:00:45;;;;;;;14.13;5.92;;;;;;;10.83;60.55;101471.73;1691295;84;21614;-82
2021/03/29 08:03:16;;;;;;;9.45;4.53;;;;;;;10.90;60.12;101474.89;1692995;83;21245;-82
2021/03/29 08:05:46;;;;;;;11.30;4.40;;;;;;;10.96;59.38;101475.88;1695460;83;21151;-82
2021/03/29 08:08:31;;;;;;;9.13;4.25;;;;;;;11.03;59.85;101476.75;1703540;83;21186;-82
2021/03/29 08:11:14;;;;;;;12.73;4.80;;;;;;;11.13;59.47;101481.05;1691683;83;21127;-80
2021/03/29 08:13:55;;;;;;;11.00;4.70;;;;;;;11.19;59.28;101476.75;1698441;83;21151;-80
2021/03/29 08:16:28;;;;;;;9.93;4.40;;;;;;;11.29;59.11;101485.00;1699411;83;21647;-81
2021/03/29 08:19:20;;;;;;;;;;;;;;;11.35;58.92;101483.77;1710363;83;21633;-80
2021/03/29 08:21:58;;;;;;;8.83;5.03;;;;;;;11.42;59.11;101489.96;1703402;83;20348;-81
2021/03/29 08:24:39;;;;;;;10.30;4.28;;;;;;;11.50;58.89;101486.39;1679814;83;21169;-81
2021/03/29 08:27:10;;;;;;;7.35;3.83;;;;;;;11.56;58.27;101490.48;1684919;83;21133;-81
2021/03/29 08:29:43;;;;;;;10.18;4.47;;;;;;;11.60;57.89;101491.99;1717312;83;21675;-81
2021/03/29 08:32:34;;;;;;;9.45;4.03;;;;;;;11.62;57.97;101495.89;1667873;83;21592;-81
2021/03/29 08:35:12;;;;;;;9.50;3.80;;;;;;;11.63;58.13;101493.14;1674287;85;21150;-81
2021/03/29 08:37:50;;;;;;;10.35;3.33;;;;;;;11.65;57.83;101497.87;1688773;83;21181;-81
2021/03/29 08:40:30;;;;;;;8.98;3.52;;;;;;;11.65;57.80;101504.48;1693483;83;21211;-79
2021/03/29 08:43:03;;;;;;;14.23;6.25;;;;;;;11.64;57.87;101503.23;1704605;83;21155;-81
2021/03/29 08:45:30;;;;;;;9.83;3.92;;;;;;;11.64;57.76;101509.84;1706739;83;21107;-80
2021/03/29 08:48:00;;;;;;;11.85;4.95;;;;;;;11.54;57.73;101497.63;1713015;83;21420;-80
2021/03/29 08:50:32;;;;;;;11.30;4.80;;;;;;;11.62;58.17;101513.91;1679759;85;21187;-81
2021/03/29 08:53:02;;;;;;;12.15;3.83;;;;;;;11.64;58.06;101514.66;1685563;83;21236;-81
2021/03/29 08:55:38;;;;;;;9.30;3.87;;;;;;;11.68;58.24;101519.30;1694087;84;21139;-81
2021/03/29 08:58:06;;;;;;;11.60;5.55;;;;;;;11.71;58.33;101516.03;1694232;84;21130;-81
2021/03/29 09:00:39;;;;;;;8.55;3.12;;;;;;;11.75;57.93;101520.67;1672687;84;21196;-81
2021/03/29 09:03:18;;;;;;;13.53;4.95;;;;;;;11.78;57.69;101520.48;1663174;84;21138;-81
2021/03/29 09:05:44;;;;;;;11.65;4.05;;;;;;;11.83;57.57;101525.49;1686230;84;21123;-81
2021/03/29 09:08:11;;;;;;;9.55;3.77;;;;;;;11.87;57.45;101523.08;1689108;84;21699;-81
2021/03/29 09:10:39;;;;;;;12.55;4.22;;;;;;;11.90;57.26;101522.42;1684448;84;21212;-80
2021/03/29 09:13:14;;;;;;;10.20;4.28;;;;;;;11.92;57.31;101516.58;1701742;84;21560;-80
2021/03/29 09:15:45;;;;;;;9.60;4.47;;;;;;;11.96;57.64;101518.56;1689456;84;21137;-80
2021/03/29 09:18:16;;;;;;;9.73;3.50;;;;;;;11.99;57.29;101522.36;1693939;83;21189;-80
2021/03/29 09:20:51;;;;;;;11.73;5.62;;;;;;;12.03;57.51;101520.38;1705280;83;21159;-80
2021/03/29 09:23:28;;;;;;;9.73;3.70;;;;;;;12.06;58.06;101518.40;1697569;83;21134;-80
2021/03/29 09:25:52;;;;;;;11.22;4.97;;;;;;;12.13;57.67;101525.49;1702960;83;21790;-80
2021/03/29 09:31:02;;;;;;;20.08;9.68;;;;;;;12.14;57.62;101537.77;1705836;83;21607;-80
2021/03/29 09:33:30;;;;;;;17.45;8.45;;;;;;;12.14;57.66;101543.06;1699700;83;21545;-81
2021/03/29 09:36:01;;;;;;;12.65;6.58;;;;;;;12.14;57.97;101538.65;1693930;84;21595;-81
2021/03/29 09:38:36;;;;;;;9.40;4.55;;;;;;;12.15;58.11;101535.53;1683402;83;21135;-81
2021/03/29 09:41:21;;;;;;;8.45;4.90;;;;;;;12.16;58.20;101538.06;1707598;83;21212;-81
2021/03/29 09:43:49;;;;;;;11.73;5.15;;;;;;;12.17;58.07;101533.62;1659541;84;21622;-81
2021/03/29 09:46:16;;;;;;;11.00;5.53;;;;;;;12.19;58.27;101541.85;1681530;84;22030;-81
2021/03/29 09:48:43;;;;;;;58.95;29.90;;;;;;;12.19;58.13;101541.85;1683950;83;21130;-81
2021/03/29 09:51:23;;;;;;;13.90;5.20;;;;;;;12.22;58.65;101543.47;1705212;83;21171;-81
2021/03/29 09:53:50;;;;;;;9.53;4.45;;;;;;;12.26;58.71;101554.24;1677861;84;21562;-81
2021/03/29 09:56:30;;;;;;;6.70;4.10;;;;;;;12.29;58.42;101547.92;1690575;84;21141;-81
2021/03/29 09:58:56;;;;;;;18.48;8.40;;;;;;;12.30;58.63;101552.26;1679878;85;21160;-81
2021/03/29 10:01:26;;;;;;;12.98;5.12;;;;;;;12.30;58.60;101546.97;1687633;84;21221;-81
2021/03/29 10:03:57;;;;;;;7.37;3.72;;;;;;;12.29;58.73;101540.83;1693640;83;21159;-81
2021/03/29 10:06:26;;;;;;;11.60;4.27;;;;;;;12.29;59.20;101549.24;1700464;83;21614;-81
2021/03/29 10:09:10;;;;;;;10.30;4.78;;;;;;;12.32;59.69;101547.73;1692144;83;21334;-81
2021/03/29 10:11:46;;;;;;;7.97;3.80;;;;;;;12.35;59.79;101551.05;1698117;83;21139;-81
2021/03/29 10:14:18;;;;;;;9.63;3.65;;;;;;;12.34;59.01;101553.33;1694565;83;21146;-81
2021/03/29 10:16:49;;;;;;;10.63;5.25;;;;;;;12.33;59.05;101544.14;1697448;83;21301;-81
2021/03/29 10:19:19;;;;;;;11.15;6.00;;;;;;;12.32;58.91;101549.06;1679807;85;21132;-81
2021/03/29 10:22:13;;;;;;;11.75;5.50;;;;;;;12.32;59.12;101549.06;1710191;83;21589;-81
2021/03/29 10:25:03;;;;;;;13.60;6.22;;;;;;;12.32;59.08;101552.55;1679338;83;21172;-81
2021/03/29 10:27:47;;;;;;;12.47;4.90;;;;;;;12.34;59.42;101549.36;1679267;85;21135;-81
2021/03/29 10:30:22;;;;;;;10.35;4.62;;;;;;;12.38;59.54;101542.08;1675809;83;21191;-81
2021/03/29 10:32:58;;;;;;;8.78;3.92;;;;;;;12.39;59.62;101541.13;1689097;83;21383;-81
2021/03/29 10:35:28;;;;;;;8.63;4.50;;;;;;;12.38;59.62;101543.41;1679970;84;21145;-81
2021/03/29 10:37:55;;;;;;;11.65;3.90;;;;;;;12.36;59.77;101538.66;1680735;84;21542;-81
2021/03/29 10:40:22;;;;;;;12.10;3.95;;;;;;;12.34;59.63;101537.89;1690348;83;22420;-81
2021/03/29 10:42:48;;;;;;;8.73;3.72;;;;;;;12.31;59.61;101532.81;1685755;85;21694;-82
2021/03/29 10:45:17;;;;;;;11.78;5.17;;;;;;;12.29;59.86;101530.72;1679738;85;21219;-81
2021/03/29 10:47:45;;;;;;;12.50;5.90;;;;;;;12.30;60.24;101532.41;1683363;84;21447;-82
2021/03/29 10:50:16;;;;;;;15.00;5.58;;;;;;;12.32;60.96;101534.50;1690295;83;21141;-81
2021/03/29 10:52:42;;;;;;;17.32;9.08;;;;;;;12.34;60.21;101527.30;1686855;84;21138;-81
2021/03/29 10:55:10;;;;;;;13.72;6.05;;;;;;;12.37;60.73;101529.77;1696149;83;21123;-81
2021/03/29 10:57:36;;;;;;;14.83;7.28;;;;;;;12.40;60.65;101523.84;1694898;84;21130;-81
2021/03/29 11:00:08;;;;;;;9.90;5.83;;;;;;;12.43;60.93;101530.72;1679606;85;21121;-81
2021/03/29 11:02:35;;;;;;;12.37;5.12;;;;;;;12.44;60.45;101528.47;1670357;84;21167;-81
2021/03/29 11:05:03;;;;;;;14.78;5.67;;;;;;;12.43;60.34;101525.42;1679763;85;21299;-81
2021/03/29 11:07:29;;;;;;;10.05;4.62;;;;;;;12.42;60.51;101518.44;1681190;84;21284;-81
2021/03/29 11:09:56;;;;;;;9.00;5.28;;;;;;;12.42;60.88;101519.28;1671237;84;22292;-81
2021/03/29 11:12:22;;;;;;;12.18;5.35;;;;;;;12.43;60.76;101517.48;1684058;83;21191;-81
2021/03/29 11:14:49;;;;;;;7.62;4.30;;;;;;;12.43;61.08;101522.78;1709637;83;21135;-81
2021/03/29 11:17:15;;;;;;;7.67;5.20;;;;;;;12.43;60.70;101523.62;1690450;84;21137;-81
2021/03/29 11:19:41;;;;;;;11.40;5.87;;;;;;;12.44;60.93;101524.02;1700794;84;21130;-81
2021/03/29 11:22:07;;;;;;;13.93;7.40;;;;;;;12.47;60.69;101522.11;1700479;84;21678;-81
2021/03/29 11:24:33;;;;;;;10.68;5.58;;;;;;;12.48;61.06;101516.74;1698826;83;21141;-81
2021/03/29 11:27:00;;;;;;;11.80;5.75;;;;;;;12.50;60.95;101520.60;1683311;84;21305;-81
2021/03/29 11:29:26;;;;;;;8.80;4.80;;;;;;;12.53;61.17;101519.94;1699663;83;21160;-81
2021/03/29 11:31:52;;;;;;;7.30;4.37;;;;;;;12.57;60.64;101523.24;1694918;84;21157;-81
2021/03/29 11:34:18;;;;;;;12.15;4.50;;;;;;;12.60;60.38;101525.25;1697413;84;21165;-81
2021/03/29 11:36:44;;;;;;;10.70;4.70;;;;;;;12.65;60.52;101527.12;1699093;83;21887;-81
2021/03/29 11:39:12;;;;;;;9.55;4.80;;;;;;;12.73;60.65;101519.17;1671552;84;21753;-81
2021/03/29 11:41:39;;;;;;;8.80;4.83;;;;;;;12.80;60.59;101516.06;1695632;83;21570;-81
2021/03/29 11:44:06;;;;;;;10.88;4.78;;;;;;;12.87;60.44;101519.17;1679539;85;21279;-81